createdAt,value
2022-10-09T00:00:59.580Z,54.44
2022-10-09T00:01:59.621Z,48.53
2022-10-09T00:02:59.569Z,51.18
2022-10-09T00:03:59.575Z,49.74
2022-10-09T00:04:59.595Z,47.64
2022-10-09T00:05:59.562Z,54.17
2022-10-09T00:06:59.554Z,49.94
2022-10-09T00:07:59.538Z,50.98
2022-10-09T00:08:59.530Z,52.30
2022-10-09T00:09:59.527Z,52.70
2022-10-09T00:10:59.523Z,53.94
2022-10-09T00:11:59.519Z,50.04
2022-10-09T00:12:59.500Z,51.38
2022-10-09T00:13:59.496Z,52.21
2022-10-09T00:14:59.493Z,51.55
2022-10-09T00:15:59.492Z,50.77
2022-10-09T00:16:59.715Z,51.16
2022-10-09T00:17:59.484Z,54.51
2022-10-09T00:18:59.474Z,50.60
2022-10-09T00:19:59.463Z,54.05
2022-10-09T00:20:59.456Z,57.12
2022-10-09T00:21:59.467Z,56.90
2022-10-09T00:22:59.435Z,48.93
2022-10-09T00:23:59.428Z,55.20
2022-10-09T00:24:59.436Z,51.44
2022-10-09T00:25:59.432Z,55.03
2022-10-09T00:26:59.419Z,49.42
2022-10-09T00:27:59.432Z,49.83
2022-10-09T00:28:59.515Z,53.89
2022-10-09T00:29:59.396Z,57.11
2022-10-09T00:30:59.481Z,52.47
2022-10-09T00:31:59.404Z,56.12
2022-10-09T00:32:59.382Z,49.92
2022-10-09T00:33:59.380Z,51.62
2022-10-09T00:34:59.364Z,54.75
2022-10-09T00:35:59.356Z,52.46
2022-10-09T00:36:59.356Z,50.51
2022-10-09T00:37:59.347Z,52.22
2022-10-09T00:38:59.344Z,54.85
2022-10-09T00:39:59.333Z,49.91
2022-10-09T00:40:59.324Z,51.62
2022-10-09T00:41:59.333Z,51.56
2022-10-09T00:42:59.314Z,52.88
2022-10-09T00:43:59.347Z,49.56
2022-10-09T00:44:59.299Z,47.40
2022-10-09T00:45:59.314Z,48.87
2022-10-09T00:46:59.296Z,52.71
2022-10-09T00:47:59.284Z,52.38
2022-10-09T00:48:59.292Z,51.23
2022-10-09T00:49:59.280Z,51.79
2022-10-09T00:50:59.260Z,51.81
2022-10-09T00:51:59.255Z,49.91
2022-10-09T00:52:59.255Z,50.58
2022-10-09T00:53:59.243Z,50.35
2022-10-09T00:54:59.247Z,55.42
2022-10-09T00:55:59.226Z,52.57
2022-10-09T00:56:59.219Z,50.83
2022-10-09T00:57:59.206Z,47.75
2022-10-09T00:58:59.207Z,48.95
2022-10-09T00:59:59.211Z,53.51
2022-10-09T01:00:59.238Z,50.31
2022-10-09T01:01:59.295Z,52.12
2022-10-09T01:02:59.200Z,52.32
2022-10-09T01:03:59.177Z,51.95
2022-10-09T01:04:59.171Z,55.27
2022-10-09T01:05:59.160Z,55.85
2022-10-09T01:06:59.156Z,55.97
2022-10-09T01:07:59.164Z,48.91
2022-10-09T01:08:59.135Z,51.55
2022-10-09T01:09:59.136Z,50.91
2022-10-09T01:10:59.134Z,55.64
2022-10-09T01:11:59.130Z,49.88
2022-10-09T01:12:59.115Z,53.15
2022-10-09T01:13:59.127Z,55.54
2022-10-09T01:14:59.135Z,51.53
2022-10-09T01:15:59.164Z,46.98
2022-10-09T01:16:59.095Z,47.25
2022-10-09T01:17:59.088Z,47.50
2022-10-09T01:18:59.079Z,52.37
2022-10-09T01:19:59.084Z,48.31
2022-10-09T01:20:59.075Z,50.64
2022-10-09T01:21:59.061Z,50.06
2022-10-09T01:22:59.055Z,51.47
2022-10-09T01:23:59.055Z,49.15
2022-10-09T01:24:59.043Z,49.74
2022-10-09T01:25:59.055Z,51.78
2022-10-09T01:26:59.024Z,49.24
2022-10-09T01:27:59.031Z,49.95
2022-10-09T01:28:59.015Z,48.97
2022-10-09T01:29:59.008Z,51.92
2022-10-09T01:30:59.058Z,53.39
2022-10-09T01:31:58.995Z,51.29
2022-10-09T01:32:59.010Z,48.94
2022-10-09T01:33:58.987Z,47.40
2022-10-09T01:34:58.985Z,47.43
2022-10-09T01:35:58.984Z,46.88
2022-10-09T01:36:58.991Z,47.81
2022-10-09T01:37:58.967Z,47.92
2022-10-09T01:38:58.956Z,46.56
2022-10-09T01:39:58.951Z,46.69
2022-10-09T01:40:58.946Z,46.98
2022-10-09T01:41:58.959Z,48.07
2022-10-09T01:42:59.125Z,47.16
2022-10-09T01:43:58.923Z,50.94
2022-10-09T01:44:58.924Z,48.16
2022-10-09T01:45:58.946Z,49.97
2022-10-09T01:46:58.899Z,47.23
2022-10-09T01:47:58.912Z,45.99
2022-10-09T01:48:58.885Z,49.35
2022-10-09T01:49:58.885Z,52.24
2022-10-09T01:50:58.879Z,46.52
2022-10-09T01:51:58.871Z,49.50
2022-10-09T01:52:58.867Z,49.92
2022-10-09T01:53:58.862Z,49.18
2022-10-09T01:54:58.854Z,49.14
2022-10-09T01:55:58.846Z,47.53
2022-10-09T01:56:58.834Z,47.56
2022-10-09T01:57:58.830Z,46.20
2022-10-09T01:58:59.831Z,46.77
2022-10-09T01:59:58.811Z,51.95
2022-10-09T02:00:58.815Z,52.10
2022-10-09T02:01:58.925Z,47.96
2022-10-09T02:02:58.832Z,48.32
2022-10-09T02:03:58.814Z,48.67
2022-10-09T02:04:58.793Z,49.12
2022-10-09T02:05:58.783Z,50.87
2022-10-09T02:06:58.775Z,51.44
2022-10-09T02:07:58.770Z,50.58
2022-10-09T02:08:58.778Z,50.00
2022-10-09T02:09:58.758Z,49.54
2022-10-09T02:10:58.752Z,47.03
2022-10-09T02:11:58.762Z,50.33
2022-10-09T02:12:58.741Z,51.85
2022-10-09T02:13:58.735Z,51.35
2022-10-09T02:14:58.747Z,46.37
2022-10-09T02:15:58.763Z,47.79
2022-10-09T02:16:58.744Z,49.61
2022-10-09T02:17:58.703Z,46.95
2022-10-09T02:18:58.704Z,47.90
2022-10-09T02:19:58.695Z,48.43
2022-10-09T02:20:58.691Z,51.68
2022-10-09T02:21:58.683Z,48.50
2022-10-09T02:22:58.699Z,52.66
2022-10-09T02:23:58.665Z,52.09
2022-10-09T02:24:58.660Z,49.57
2022-10-09T02:25:58.655Z,54.98
2022-10-09T02:26:58.642Z,51.54
2022-10-09T02:27:58.656Z,52.96
2022-10-09T02:28:58.631Z,48.85
2022-10-09T02:29:58.617Z,52.66
2022-10-09T02:30:58.706Z,48.13
2022-10-09T02:31:58.612Z,52.10
2022-10-09T02:32:58.647Z,50.09
2022-10-09T02:33:58.655Z,54.49
2022-10-09T02:34:58.598Z,54.27
2022-10-09T02:35:58.576Z,53.17
2022-10-09T02:36:58.577Z,53.14
2022-10-09T02:37:58.567Z,52.28
2022-10-09T02:38:58.576Z,49.82
2022-10-09T02:39:58.543Z,49.87
2022-10-09T02:40:58.544Z,49.95
2022-10-09T02:41:58.528Z,49.53
2022-10-09T02:42:58.534Z,48.16
2022-10-09T02:43:58.527Z,51.81
2022-10-09T02:44:58.527Z,48.95
2022-10-09T02:45:58.575Z,50.51
2022-10-09T02:46:58.506Z,47.79
2022-10-09T02:47:58.503Z,50.37
2022-10-09T02:48:58.495Z,46.75
2022-10-09T02:49:58.506Z,48.98
2022-10-09T02:50:58.478Z,47.21
2022-10-09T02:51:58.474Z,50.77
2022-10-09T02:52:58.468Z,51.04
2022-10-09T02:53:58.508Z,50.89
2022-10-09T02:54:58.459Z,53.65
2022-10-09T02:55:58.501Z,50.90
2022-10-09T02:56:58.454Z,52.26
2022-10-09T02:57:58.658Z,55.16
2022-10-09T02:58:58.431Z,50.38
2022-10-09T02:59:58.442Z,53.02
2022-10-09T03:00:58.443Z,48.40
2022-10-09T03:01:58.527Z,54.09
2022-10-09T03:02:58.622Z,52.06
2022-10-09T03:03:58.402Z,53.22
2022-10-09T03:04:58.394Z,52.59
2022-10-09T03:05:58.439Z,49.00
2022-10-09T03:06:58.534Z,49.72
2022-10-09T03:07:58.391Z,48.51
2022-10-09T03:08:58.370Z,47.21
2022-10-09T03:09:58.369Z,48.65
2022-10-09T03:10:58.371Z,48.14
2022-10-09T03:11:58.359Z,48.00
2022-10-09T03:12:58.338Z,50.17
2022-10-09T03:13:58.333Z,52.55
2022-10-09T03:14:58.330Z,50.93
2022-10-09T03:15:58.380Z,50.68
2022-10-09T03:16:58.306Z,53.13
2022-10-09T03:17:58.314Z,51.46
2022-10-09T03:18:58.302Z,49.84
2022-10-09T03:19:58.294Z,53.38
2022-10-09T03:20:58.290Z,51.08
2022-10-09T03:21:58.425Z,51.88
2022-10-09T03:22:58.291Z,53.26
2022-10-09T03:23:58.284Z,49.00
2022-10-09T03:24:58.269Z,50.76
2022-10-09T03:25:58.266Z,49.75
2022-10-09T03:26:58.257Z,49.26
2022-10-09T03:27:58.266Z,50.32
2022-10-09T03:28:58.241Z,48.48
2022-10-09T03:29:58.236Z,50.95
2022-10-09T03:30:58.267Z,50.48
2022-10-09T03:31:58.311Z,48.83
2022-10-09T03:32:58.234Z,48.36
2022-10-09T03:33:58.202Z,53.90
2022-10-09T03:34:58.197Z,54.79
2022-10-09T03:35:58.205Z,55.65
2022-10-09T03:36:58.186Z,53.11
2022-10-09T03:37:58.257Z,51.45
2022-10-09T03:38:58.306Z,49.86
2022-10-09T03:39:58.303Z,47.71
2022-10-09T03:40:58.246Z,49.10
2022-10-09T03:41:58.259Z,51.57
2022-10-09T03:42:58.354Z,49.85
2022-10-09T03:43:58.182Z,50.36
2022-10-09T03:44:58.129Z,46.60
2022-10-09T03:46:00.992Z,52.03
2022-10-09T03:46:59.228Z,52.15
2022-10-09T03:47:58.114Z,50.25
2022-10-09T03:48:58.121Z,52.50
2022-10-09T03:49:58.104Z,48.59
2022-10-09T03:50:58.093Z,46.72
2022-10-09T03:51:58.082Z,51.33
2022-10-09T03:52:58.089Z,55.65
2022-10-09T03:53:58.072Z,54.27
2022-10-09T03:54:58.072Z,52.65
2022-10-09T03:55:58.069Z,54.44
2022-10-09T03:56:58.060Z,48.44
2022-10-09T03:57:58.053Z,52.16
2022-10-09T03:58:58.063Z,52.05
2022-10-09T03:59:58.033Z,50.09
2022-10-09T04:00:58.064Z,47.19
2022-10-09T04:01:58.022Z,51.32
2022-10-09T04:02:58.076Z,50.65
2022-10-09T04:03:58.024Z,55.23
2022-10-09T04:04:57.998Z,56.11
2022-10-09T04:05:58.033Z,47.47
2022-10-09T04:06:57.999Z,49.49
2022-10-09T04:07:57.994Z,52.02
2022-10-09T04:08:57.973Z,51.30
2022-10-09T04:09:57.971Z,47.60
2022-10-09T04:10:57.966Z,49.62
2022-10-09T04:11:57.954Z,51.00
2022-10-09T04:12:57.973Z,48.08
2022-10-09T04:13:57.934Z,49.30
2022-10-09T04:14:58.941Z,52.23
2022-10-09T04:15:57.996Z,50.46
2022-10-09T04:16:57.922Z,49.55
2022-10-09T04:17:57.917Z,48.23
2022-10-09T04:18:57.926Z,49.08
2022-10-09T04:19:57.907Z,49.97
2022-10-09T04:20:57.894Z,50.42
2022-10-09T04:21:57.896Z,51.42
2022-10-09T04:22:57.887Z,50.05
2022-10-09T04:23:57.879Z,50.15
2022-10-09T04:24:57.866Z,53.43
2022-10-09T04:25:57.862Z,50.01
2022-10-09T04:26:57.850Z,51.32
2022-10-09T04:27:57.873Z,50.57
2022-10-09T04:28:58.881Z,51.79
2022-10-09T04:29:57.839Z,50.62
2022-10-09T04:30:57.825Z,50.29
2022-10-09T04:31:57.850Z,49.60
2022-10-09T04:32:57.805Z,52.23
2022-10-09T04:33:57.809Z,50.19
2022-10-09T04:34:57.790Z,52.96
2022-10-09T04:35:57.794Z,51.77
2022-10-09T04:36:57.796Z,51.53
2022-10-09T04:37:57.770Z,52.71
2022-10-09T04:38:57.761Z,48.63
2022-10-09T04:39:57.763Z,52.38
2022-10-09T04:40:57.753Z,51.80
2022-10-09T04:41:57.763Z,51.99
2022-10-09T04:42:57.742Z,53.13
2022-10-09T04:43:57.741Z,53.12
2022-10-09T04:44:57.730Z,50.67
2022-10-09T04:45:57.756Z,50.94
2022-10-09T04:46:57.709Z,52.48
2022-10-09T04:47:57.709Z,53.29
2022-10-09T04:48:57.706Z,51.29
2022-10-09T04:49:57.689Z,51.82
2022-10-09T04:50:57.691Z,54.67
2022-10-09T04:51:57.682Z,50.95
2022-10-09T04:52:57.673Z,48.05
2022-10-09T04:54:00.620Z,49.17
2022-10-09T04:54:58.662Z,53.43
2022-10-09T04:55:57.661Z,51.40
2022-10-09T04:56:57.653Z,48.26
2022-10-09T04:57:57.639Z,49.28
2022-10-09T04:58:57.636Z,48.19
2022-10-09T04:59:57.634Z,51.25
2022-10-09T05:00:57.675Z,52.21
2022-10-09T05:01:57.690Z,52.39
2022-10-09T05:02:57.609Z,52.08
2022-10-09T05:03:57.649Z,51.25
2022-10-09T05:04:57.596Z,46.90
2022-10-09T05:05:57.597Z,49.82
2022-10-09T05:06:57.577Z,51.01
2022-10-09T05:07:57.576Z,48.83
2022-10-09T05:08:57.570Z,52.16
2022-10-09T05:09:57.573Z,50.47
2022-10-09T05:10:57.570Z,49.87
2022-10-09T05:11:57.558Z,50.67
2022-10-09T05:12:57.545Z,51.78
2022-10-09T05:13:57.534Z,51.06
2022-10-09T05:14:57.531Z,47.77
2022-10-09T05:15:57.592Z,50.92
2022-10-09T05:17:12.945Z,51.66
2022-10-09T05:17:59.524Z,51.95
2022-10-09T05:18:57.498Z,48.44
2022-10-09T05:19:57.504Z,51.16
2022-10-09T05:20:57.514Z,49.45
2022-10-09T05:21:57.507Z,50.85
2022-10-09T05:22:57.486Z,50.08
2022-10-09T05:23:57.477Z,49.98
2022-10-09T05:24:57.490Z,52.18
2022-10-09T05:25:57.489Z,50.86
2022-10-09T05:26:57.457Z,52.16
2022-10-09T05:27:57.454Z,53.69
2022-10-09T05:28:57.453Z,52.64
2022-10-09T05:29:57.442Z,56.49
2022-10-09T05:30:57.437Z,54.16
2022-10-09T05:31:57.534Z,52.51
2022-10-09T05:32:57.417Z,54.20
2022-10-09T05:33:57.413Z,48.65
2022-10-09T05:34:57.406Z,49.90
2022-10-09T05:35:57.424Z,50.89
2022-10-09T05:36:57.398Z,52.11
2022-10-09T05:37:57.389Z,51.16
2022-10-09T05:38:57.381Z,49.32
2022-10-09T05:39:57.413Z,51.53
2022-10-09T05:40:58.381Z,51.35
2022-10-09T05:41:57.357Z,50.35
2022-10-09T05:42:57.357Z,50.20
2022-10-09T05:43:57.351Z,52.06
2022-10-09T05:44:57.371Z,53.32
2022-10-09T05:45:57.415Z,51.58
2022-10-09T05:46:57.329Z,50.16
2022-10-09T05:47:57.322Z,50.88
2022-10-09T05:48:57.317Z,50.45
2022-10-09T05:49:57.313Z,50.86
2022-10-09T05:50:57.333Z,51.08
2022-10-09T05:51:57.309Z,49.32
2022-10-09T05:52:57.290Z,51.56
2022-10-09T05:53:57.282Z,52.80
2022-10-09T05:54:57.265Z,50.50
2022-10-09T05:56:01.537Z,52.36
2022-10-09T05:56:59.302Z,51.01
2022-10-09T05:57:57.249Z,47.62
2022-10-09T05:58:57.242Z,48.86
2022-10-09T05:59:57.237Z,50.94
2022-10-09T06:00:57.256Z,51.75
2022-10-09T06:01:57.295Z,51.19
2022-10-09T06:02:57.383Z,52.65
2022-10-09T06:03:57.206Z,50.48
2022-10-09T06:04:57.202Z,52.01
2022-10-09T06:05:57.190Z,53.76
2022-10-09T06:06:57.197Z,49.33
2022-10-09T06:07:57.197Z,51.98
2022-10-09T06:08:57.177Z,51.75
2022-10-09T06:09:57.165Z,53.96
2022-10-09T06:10:57.161Z,50.84
2022-10-09T06:11:57.153Z,51.24
2022-10-09T06:12:57.157Z,52.77
2022-10-09T06:13:57.141Z,51.94
2022-10-09T06:14:57.137Z,51.20
2022-10-09T06:15:57.128Z,51.25
2022-10-09T06:16:57.152Z,51.94
2022-10-09T06:17:57.132Z,54.16
2022-10-09T06:18:57.105Z,52.07
2022-10-09T06:19:57.097Z,51.85
2022-10-09T06:20:57.096Z,51.66
2022-10-09T06:21:57.081Z,51.46
2022-10-09T06:22:57.105Z,52.55
2022-10-09T06:23:57.081Z,50.79
2022-10-09T06:24:57.062Z,51.10
2022-10-09T06:25:57.048Z,50.89
2022-10-09T06:26:57.066Z,52.44
2022-10-09T06:27:57.048Z,51.72
2022-10-09T06:28:57.050Z,49.90
2022-10-09T06:29:57.037Z,53.81
2022-10-09T06:30:57.053Z,52.43
2022-10-09T06:31:57.019Z,53.71
2022-10-09T06:32:57.011Z,51.51
2022-10-09T06:33:57.026Z,51.99
2022-10-09T06:34:56.999Z,52.62
2022-10-09T06:36:05.615Z,52.13
2022-10-09T06:36:58.991Z,54.22
2022-10-09T06:37:56.975Z,55.33
2022-10-09T06:38:56.992Z,53.40
2022-10-09T06:39:56.971Z,55.01
2022-10-09T06:40:56.966Z,52.58
2022-10-09T06:41:56.944Z,54.17
2022-10-09T06:42:56.956Z,54.80
2022-10-09T06:43:56.964Z,54.72
2022-10-09T06:44:56.937Z,54.87
2022-10-09T06:45:56.959Z,53.12
2022-10-09T06:46:56.933Z,52.48
2022-10-09T06:47:56.927Z,53.41
2022-10-09T06:48:56.911Z,52.31
2022-10-09T06:49:56.915Z,53.42
2022-10-09T06:50:56.898Z,51.63
2022-10-09T06:51:56.901Z,51.43
2022-10-09T06:52:56.899Z,53.75
2022-10-09T06:53:56.883Z,52.66
2022-10-09T06:54:56.867Z,53.80
2022-10-09T06:55:56.883Z,52.88
2022-10-09T06:56:56.851Z,54.62
2022-10-09T06:57:56.867Z,53.91
2022-10-09T06:58:56.831Z,53.36
2022-10-09T06:59:56.841Z,52.38
2022-10-09T07:00:56.862Z,52.41
2022-10-09T07:01:57.073Z,51.46
2022-10-09T07:02:56.923Z,53.50
2022-10-09T07:03:56.827Z,53.15
2022-10-09T07:04:56.827Z,52.94
2022-10-09T07:05:56.799Z,53.15
2022-10-09T07:06:56.793Z,54.12
2022-10-09T07:07:56.784Z,52.83
2022-10-09T07:08:56.787Z,53.66
2022-10-09T07:09:56.767Z,50.14
2022-10-09T07:10:56.787Z,54.08
2022-10-09T07:11:56.763Z,54.39
2022-10-09T07:12:56.759Z,53.58
2022-10-09T07:13:56.778Z,54.11
2022-10-09T07:14:56.747Z,54.18
2022-10-09T07:15:58.036Z,52.24
2022-10-09T07:16:56.732Z,53.08
2022-10-09T07:17:56.722Z,54.13
2022-10-09T07:18:56.717Z,52.69
2022-10-09T07:19:56.721Z,55.17
2022-10-09T07:20:56.704Z,53.74
2022-10-09T07:21:56.690Z,54.03
2022-10-09T07:22:56.696Z,52.74
2022-10-09T07:23:56.689Z,52.95
2022-10-09T07:24:56.673Z,54.12
2022-10-09T07:25:56.676Z,52.66
2022-10-09T07:26:56.676Z,54.62
2022-10-09T07:27:56.654Z,54.23
2022-10-09T07:28:56.674Z,54.59
2022-10-09T07:29:56.667Z,54.23
2022-10-09T07:30:56.689Z,53.32
2022-10-09T07:31:56.631Z,53.18
2022-10-09T07:32:56.631Z,55.03
2022-10-09T07:33:56.621Z,53.61
2022-10-09T07:34:56.695Z,53.30
2022-10-09T07:35:56.615Z,53.41
2022-10-09T07:36:56.591Z,54.63
2022-10-09T07:37:56.583Z,54.61
2022-10-09T07:38:56.586Z,54.81
2022-10-09T07:39:56.569Z,53.54
2022-10-09T07:40:56.581Z,54.37
2022-10-09T07:41:56.567Z,54.69
2022-10-09T07:42:56.561Z,53.83
2022-10-09T07:43:56.545Z,53.97
2022-10-09T07:44:56.543Z,55.46
2022-10-09T07:45:56.575Z,53.34
2022-10-09T07:46:56.530Z,54.85
2022-10-09T07:47:56.527Z,53.83
2022-10-09T07:48:56.515Z,53.67
2022-10-09T07:49:56.505Z,53.07
2022-10-09T07:50:56.526Z,53.22
2022-10-09T07:51:56.505Z,54.15
2022-10-09T07:52:56.486Z,55.14
2022-10-09T07:53:56.483Z,54.03
2022-10-09T07:54:56.474Z,53.71
2022-10-09T07:55:56.490Z,54.78
2022-10-09T07:56:56.463Z,54.36
2022-10-09T07:57:56.568Z,54.27
2022-10-09T07:58:56.433Z,54.69
2022-10-09T07:59:57.434Z,53.83
2022-10-09T08:00:56.421Z,53.07
2022-10-09T08:01:56.475Z,53.46
2022-10-09T08:02:56.505Z,53.63
2022-10-09T08:03:56.416Z,54.13
2022-10-09T08:04:56.405Z,55.07
2022-10-09T08:05:56.407Z,52.97
2022-10-09T08:06:56.427Z,52.26
2022-10-09T08:07:56.376Z,54.38
2022-10-09T08:08:56.386Z,52.83
2022-10-09T08:09:56.374Z,53.38
2022-10-09T08:10:56.366Z,54.72
2022-10-09T08:11:56.371Z,53.74
2022-10-09T08:12:56.354Z,54.27
2022-10-09T08:13:56.373Z,54.26
2022-10-09T08:14:56.348Z,54.52
2022-10-09T08:15:56.400Z,53.62
2022-10-09T08:16:56.347Z,53.55
2022-10-09T08:17:56.343Z,52.91
2022-10-09T08:18:56.921Z,54.83
2022-10-09T08:19:56.307Z,52.54
2022-10-09T08:20:56.299Z,52.63
2022-10-09T08:21:59.088Z,53.11
2022-10-09T08:22:57.307Z,53.71
2022-10-09T08:23:56.275Z,54.36
2022-10-09T08:24:56.268Z,52.98
2022-10-09T08:25:56.267Z,53.38
2022-10-09T08:26:56.384Z,51.88
2022-10-09T08:27:57.971Z,54.37
2022-10-09T08:28:56.310Z,54.90
2022-10-09T08:29:57.099Z,54.82
2022-10-09T08:30:56.390Z,52.65
2022-10-09T08:31:56.219Z,52.16
2022-10-09T08:32:56.242Z,54.76
2022-10-09T08:33:56.203Z,54.29
2022-10-09T08:34:57.204Z,53.55
2022-10-09T08:35:56.204Z,53.63
2022-10-09T08:36:56.192Z,55.18
2022-10-09T08:37:56.203Z,53.73
2022-10-09T08:38:56.183Z,54.16
2022-10-09T08:39:56.175Z,52.93
2022-10-09T08:40:58.236Z,51.99
2022-10-09T08:41:57.168Z,53.15
2022-10-09T08:42:56.155Z,53.53
2022-10-09T08:43:56.175Z,52.79
2022-10-09T08:44:56.151Z,53.48
2022-10-09T08:45:56.189Z,55.00
2022-10-09T08:46:56.133Z,54.83
2022-10-09T08:47:56.138Z,53.95
2022-10-09T08:48:56.123Z,54.49
2022-10-09T08:49:56.107Z,53.14
2022-10-09T08:50:56.108Z,54.33
2022-10-09T08:51:56.099Z,53.63
2022-10-09T08:52:56.858Z,54.89
2022-10-09T08:53:56.139Z,53.13
2022-10-09T08:54:56.077Z,54.18
2022-10-09T08:55:56.063Z,53.67
2022-10-09T08:56:56.050Z,54.75
2022-10-09T08:57:56.041Z,55.09
2022-10-09T08:58:56.054Z,54.43
2022-10-09T08:59:56.038Z,53.89
2022-10-09T09:00:56.035Z,54.60
2022-10-09T09:01:56.074Z,53.08
2022-10-09T09:02:56.026Z,53.77
2022-10-09T09:03:56.011Z,52.92
2022-10-09T09:04:56.027Z,54.30
2022-10-09T09:05:55.998Z,53.54
2022-10-09T09:06:55.986Z,52.84
2022-10-09T09:07:55.990Z,52.84
2022-10-09T09:08:55.971Z,53.35
2022-10-09T09:09:55.990Z,51.97
2022-10-09T09:10:55.963Z,53.08
2022-10-09T09:11:55.963Z,52.32
2022-10-09T09:12:55.944Z,52.94
2022-10-09T09:13:55.943Z,52.04
2022-10-09T09:14:56.005Z,52.16
2022-10-09T09:15:55.953Z,50.80
2022-10-09T09:16:55.924Z,50.93
2022-10-09T09:17:55.917Z,51.96
2022-10-09T09:18:55.914Z,52.44
2022-10-09T09:19:55.907Z,51.35
2022-10-09T09:20:55.910Z,52.40
2022-10-09T09:21:55.940Z,51.50
2022-10-09T09:22:55.930Z,51.87
2022-10-09T09:23:55.887Z,51.82
2022-10-09T09:24:55.997Z,52.24
2022-10-09T09:25:55.887Z,52.09
2022-10-09T09:26:55.914Z,50.71
2022-10-09T09:27:55.863Z,51.35
2022-10-09T09:28:55.988Z,51.73
2022-10-09T09:29:55.856Z,52.75
2022-10-09T09:30:55.883Z,52.57
2022-10-09T09:31:55.868Z,53.80
2022-10-09T09:32:55.989Z,52.94
2022-10-09T09:33:55.863Z,52.04
2022-10-09T09:34:55.820Z,51.71
2022-10-09T09:35:55.828Z,51.91
2022-10-09T09:36:55.826Z,51.72
2022-10-09T09:37:55.831Z,50.74
2022-10-09T09:39:54.241Z,50.83
2022-10-09T09:40:57.782Z,50.93
2022-10-09T09:41:55.768Z,50.21
2022-10-09T09:42:55.755Z,50.42
2022-10-09T09:43:55.747Z,50.03
2022-10-09T09:44:55.743Z,50.59
2022-10-09T09:45:55.760Z,49.40
2022-10-09T09:46:55.811Z,50.57
2022-10-09T09:47:55.734Z,50.05
2022-10-09T09:48:55.890Z,51.26
2022-10-09T09:49:56.480Z,51.61
2022-10-09T09:51:16.193Z,49.86
2022-10-09T09:51:57.755Z,51.53
2022-10-09T09:52:55.778Z,51.39
2022-10-09T09:53:55.703Z,51.22
2022-10-09T09:54:55.730Z,51.43
2022-10-09T09:55:55.697Z,51.86
2022-10-09T09:57:14.906Z,52.48
2022-10-09T09:57:57.787Z,50.73
2022-10-09T09:58:56.422Z,49.43
2022-10-09T09:59:56.423Z,50.44
2022-10-09T10:00:55.915Z,49.86
2022-10-09T10:01:55.767Z,51.73
2022-10-09T10:02:55.675Z,51.76
2022-10-09T10:03:55.799Z,51.33
2022-10-09T10:04:55.688Z,49.70
2022-10-09T10:05:55.667Z,51.49
2022-10-09T10:06:55.624Z,50.58
2022-10-09T10:07:55.607Z,50.43
2022-10-09T10:08:55.804Z,49.31
2022-10-09T10:09:55.659Z,49.11
2022-10-09T10:10:55.628Z,49.70
2022-10-09T10:11:55.640Z,49.53
2022-10-09T10:12:55.587Z,51.11
2022-10-09T10:13:55.583Z,49.35
2022-10-09T10:14:55.568Z,50.22
2022-10-09T10:15:55.665Z,50.53
2022-10-09T10:16:55.594Z,49.75
2022-10-09T10:17:55.595Z,49.68
2022-10-09T10:18:55.590Z,52.04
2022-10-09T10:19:55.557Z,50.01
2022-10-09T10:20:55.575Z,49.97
2022-10-09T10:21:55.543Z,50.97
2022-10-09T10:22:55.557Z,50.06
2022-10-09T10:23:55.556Z,49.17
2022-10-09T10:24:55.579Z,50.55
2022-10-09T10:25:55.519Z,50.22
2022-10-09T10:26:55.527Z,50.21
2022-10-09T10:27:55.545Z,50.64
2022-10-09T10:28:55.533Z,52.84
2022-10-09T10:29:55.514Z,50.24
2022-10-09T10:30:55.513Z,47.30
2022-10-09T10:31:55.513Z,49.96
2022-10-09T10:32:55.481Z,50.93
2022-10-09T10:33:55.470Z,50.41
2022-10-09T10:34:55.509Z,48.57
2022-10-09T10:35:55.499Z,49.08
2022-10-09T10:36:58.540Z,50.29
2022-10-09T10:37:56.442Z,48.59
2022-10-09T10:38:55.484Z,51.42
2022-10-09T10:39:55.453Z,50.07
2022-10-09T10:40:55.442Z,49.83
2022-10-09T10:41:56.357Z,50.23
2022-10-09T10:42:58.669Z,52.11
2022-10-09T10:43:56.456Z,48.92
2022-10-09T10:44:55.442Z,49.24
2022-10-09T10:45:55.444Z,49.50
2022-10-09T10:46:55.616Z,49.19
2022-10-09T10:47:55.432Z,50.53
2022-10-09T10:48:55.409Z,50.39
2022-10-09T10:49:55.401Z,48.67
2022-10-09T10:50:55.397Z,48.60
2022-10-09T10:51:55.399Z,49.92
2022-10-09T10:52:55.417Z,48.50
2022-10-09T10:53:55.395Z,49.14
2022-10-09T10:54:55.378Z,49.92
2022-10-09T10:55:55.378Z,50.29
2022-10-09T10:56:55.384Z,49.93
2022-10-09T10:57:55.393Z,50.24
2022-10-09T10:58:56.477Z,49.35
2022-10-09T10:59:55.365Z,47.82
2022-10-09T11:00:55.418Z,48.94
2022-10-09T11:01:55.343Z,49.55
2022-10-09T11:02:55.795Z,49.76
2022-10-09T11:03:55.349Z,49.74
2022-10-09T11:04:55.540Z,49.26
2022-10-09T11:05:55.331Z,49.24
2022-10-09T11:06:55.325Z,49.42
2022-10-09T11:07:59.102Z,47.37
2022-10-09T11:08:56.318Z,48.05
2022-10-09T11:09:55.341Z,48.59
2022-10-09T11:10:55.314Z,47.53
2022-10-09T11:11:55.309Z,45.82
2022-10-09T11:12:55.321Z,48.08
2022-10-09T11:13:55.300Z,48.38
2022-10-09T11:14:55.293Z,48.16
2022-10-09T11:15:55.327Z,48.51
2022-10-09T11:16:55.288Z,48.72
2022-10-09T11:17:55.309Z,46.87
2022-10-09T11:18:55.278Z,47.24
2022-10-09T11:19:55.281Z,48.11
2022-10-09T11:20:55.316Z,49.46
2022-10-09T11:21:55.260Z,48.48
2022-10-09T11:22:55.266Z,51.22
2022-10-09T11:23:55.240Z,51.96
2022-10-09T11:24:55.249Z,50.63
2022-10-09T11:25:55.248Z,49.90
2022-10-09T11:26:57.546Z,48.93
2022-10-09T11:27:56.258Z,48.57
2022-10-09T11:28:55.249Z,49.24
2022-10-09T11:29:55.213Z,48.60
2022-10-09T11:30:55.216Z,49.23
2022-10-09T11:31:55.298Z,50.17
2022-10-09T11:32:55.214Z,49.64
2022-10-09T11:33:55.214Z,51.61
2022-10-09T11:34:55.206Z,51.52
2022-10-09T11:35:55.205Z,50.66
2022-10-09T11:36:55.192Z,53.11
2022-10-09T11:37:55.184Z,52.36
2022-10-09T11:38:55.192Z,51.26
2022-10-09T11:39:55.176Z,48.76
2022-10-09T11:40:55.171Z,48.84
2022-10-09T11:41:55.169Z,48.92
2022-10-09T11:42:55.165Z,51.27
2022-10-09T11:43:55.180Z,51.11
2022-10-09T11:44:55.162Z,52.89
2022-10-09T11:45:55.226Z,52.78
2022-10-09T11:46:55.155Z,52.29
2022-10-09T11:47:55.140Z,50.94
2022-10-09T11:48:55.144Z,52.46
2022-10-09T11:49:55.160Z,53.82
2022-10-09T11:50:55.129Z,53.72
2022-10-09T11:51:55.124Z,53.11
2022-10-09T11:52:55.121Z,52.70
2022-10-09T11:53:55.127Z,52.41
2022-10-09T11:54:55.163Z,51.51
2022-10-09T11:55:55.135Z,50.79
2022-10-09T11:56:55.132Z,50.22
2022-10-09T11:57:55.140Z,50.74
2022-10-09T11:58:55.168Z,51.36
2022-10-09T11:59:55.167Z,53.25
2022-10-09T12:00:55.173Z,51.46
2022-10-09T12:01:55.153Z,51.38
2022-10-09T12:02:55.115Z,50.08
2022-10-09T12:03:58.745Z,51.34
2022-10-09T12:04:57.204Z,51.68
2022-10-09T12:05:55.064Z,52.43
2022-10-09T12:06:55.051Z,51.11
2022-10-09T12:07:55.055Z,57.53
2022-10-09T12:08:55.045Z,52.43
2022-10-09T12:09:55.059Z,50.13
2022-10-09T12:10:55.039Z,52.82
2022-10-09T12:11:55.127Z,53.40
2022-10-09T12:12:55.038Z,51.52
2022-10-09T12:13:55.018Z,51.31
2022-10-09T12:14:55.034Z,52.51
2022-10-09T12:15:55.022Z,52.77
2022-10-09T12:16:55.067Z,54.49
2022-10-09T12:17:55.004Z,55.11
2022-10-09T12:18:54.992Z,53.90
2022-10-09T12:20:00.095Z,52.00
2022-10-09T12:20:57.027Z,52.57
2022-10-09T12:21:55.002Z,52.06
2022-10-09T12:23:14.259Z,54.48
2022-10-09T12:23:56.990Z,52.55
2022-10-09T12:24:54.987Z,52.45
2022-10-09T12:25:55.083Z,53.38
2022-10-09T12:26:55.130Z,53.22
2022-10-09T12:27:54.983Z,52.01
2022-10-09T12:28:54.962Z,51.82
2022-10-09T12:29:54.963Z,53.70
2022-10-09T12:30:55.103Z,53.96
2022-10-09T12:31:55.065Z,53.00
2022-10-09T12:32:54.939Z,52.25
2022-10-09T12:33:54.951Z,53.70
2022-10-09T12:34:54.926Z,55.98
2022-10-09T12:35:55.043Z,56.00
2022-10-09T12:36:54.954Z,54.46
2022-10-09T12:37:54.927Z,53.66
2022-10-09T12:38:54.926Z,53.62
2022-10-09T12:39:54.922Z,55.26
2022-10-09T12:40:55.414Z,54.51
2022-10-09T12:41:54.903Z,56.36
2022-10-09T12:42:54.929Z,57.44
2022-10-09T12:43:54.890Z,56.34
2022-10-09T12:44:54.910Z,55.77
2022-10-09T12:45:54.934Z,54.94
2022-10-09T12:46:54.906Z,55.76
2022-10-09T12:47:54.874Z,55.83
2022-10-09T12:48:54.914Z,55.84
2022-10-09T12:49:54.868Z,55.87
2022-10-09T12:50:54.859Z,55.38
2022-10-09T12:51:56.303Z,57.35
2022-10-09T12:52:54.841Z,54.85
2022-10-09T12:53:54.822Z,55.28